Terminal Aerodrome Forecast
Issued by NWS Blacksburg, VA

Current Version | Previous Version | Text Only | Print | Product List | Glossary Off
Versions: 1 2 3 4 5 6 7 8 9 10 11 12 13 14 15 16 17 18 19 20 21 22 23 24 25 26 27 28 29 30 31 32 33 34 35 36 37 38 39 40 41 42 43 44 45 46 47 48 49 50

000
FTUS41 KRNK 241842 AAA
TAFBLF
TAF AMD
KBLF 241842Z 2419/2518 28010KT P6SM VCTS SCT030 BKN045CB
     FM250000 28006KT P6SM BKN045
     FM250300 29004KT P6SM SCT050
     FM250700 VRB03KT P6SM SCT003
     FM251000 00000KT P6SM BKN008
     FM251400 VRB03KT P6SM SCT015=

USA.gov is the U.S. government's official web portal to all federal, state and local government web resources and services.